Time;durP1;ratioP1;P1;durP2;ratioP2;P2;SDS_P1;SDS_P2;PMS_P1;PMS_P2;Temp;Humidity;BMP_temperature;BMP_pressure;BME280_temperature;BME280_humidity;BME280_pressure;Samples;Min_cycle;Max_cycle;Signal;HPM_P1;HPM_P2
2022/01/16 00:00:04;;;;;;;41.45;16.65;;;;;;;;;;5046717;28;20021;-74
2022/01/16 00:05:15;;;;;;;39.45;16.95;;;;;;;;;;5038430;28;20059;-74
2022/01/16 00:07:41;;;;;;;35.38;15.93;;;;;;;;;;5051296;28;20104;-75
2022/01/16 00:10:07;;;;;;;36.38;16.23;;;;;;;;;;5040386;28;20107;-76
2022/01/16 00:12:33;;;;;;;36.80;16.45;;;;;;;;;;5046000;28;20525;-75
2022/01/16 00:14:59;;;;;;;40.35;16.40;;;;;;;;;;5045107;28;20025;-75
2022/01/16 00:17:27;;;;;;;35.13;16.10;;;;;;;;;;5035690;28;20025;-74
2022/01/16 00:19:54;;;;;;;35.90;15.70;;;;;;;;;;5051025;28;20017;-74
2022/01/16 00:22:24;;;;;;;27.92;14.98;;;;;;;;;;5040508;28;20036;-76
2022/01/16 00:24:50;;;;;;;31.92;12.15;;;;;;;;;;5023658;28;20028;-75
2022/01/16 00:27:16;;;;;;;31.52;14.90;;;;;;;;;;5051864;28;20054;-75
2022/01/16 00:29:42;;;;;;;33.40;15.68;;;;;;;;;;5050693;28;20032;-76
2022/01/16 00:32:08;;;;;;;38.55;17.63;;;;;;;;;;5047066;28;20088;-76
2022/01/16 00:34:34;;;;;;;34.85;16.73;;;;;;;;;;5064807;28;20040;-76
2022/01/16 00:37:00;;;;;;;40.85;17.45;;;;;;;;;;5032686;28;20021;-76
2022/01/16 00:39:27;;;;;;;49.03;19.42;;;;;;;;;;5051966;28;20056;-76
2022/01/16 00:41:53;;;;;;;34.53;17.20;;;;;;;;;;5039246;28;20025;-76
2022/01/16 00:44:21;;;;;;;32.15;17.75;;;;;;;;;;5029711;28;20499;-77
2022/01/16 00:46:46;;;;;;;36.88;16.38;;;;;;;;;;5046725;28;20057;-76
2022/01/16 00:49:12;;;;;;;34.35;15.77;;;;;;;;;;5040492;28;20465;-75
2022/01/16 00:51:38;;;;;;;39.58;18.02;;;;;;;;;;5051630;28;20079;-75
2022/01/16 00:54:05;;;;;;;43.17;17.48;;;;;;;;;;5040313;28;20475;-76
2022/01/16 00:56:31;;;;;;;37.55;17.10;;;;;;;;;;5046641;28;20053;-76
2022/01/16 00:58:57;;;;;;;46.40;19.38;;;;;;;;;;5047484;28;20509;-76
2022/01/16 01:01:23;;;;;;;31.65;14.80;;;;;;;;;;5021096;28;20060;-76
2022/01/16 01:03:49;;;;;;;52.55;17.58;;;;;;;;;;5032734;28;20041;-75
2022/01/16 01:06:15;;;;;;;41.20;18.27;;;;;;;;;;5041373;28;20437;-75
2022/01/16 01:08:41;;;;;;;37.95;16.40;;;;;;;;;;5044020;28;20029;-76
2022/01/16 01:11:12;;;;;;;37.22;16.40;;;;;;;;;;5048507;28;20074;-76
2022/01/16 01:16:49;;;;;;;34.17;17.05;;;;;;;;;;5036623;28;19901;-76
2022/01/16 01:19:15;;;;;;;44.35;17.38;;;;;;;;;;5031667;28;20021;-75
2022/01/16 01:21:41;;;;;;;41.55;17.35;;;;;;;;;;5037517;28;20105;-75
2022/01/16 01:24:07;;;;;;;39.00;17.27;;;;;;;;;;5047914;28;20112;-76
2022/01/16 01:26:40;;;;;;;39.80;18.17;;;;;;;;;;5043944;28;20033;-75
2022/01/16 01:29:06;;;;;;;50.85;18.58;;;;;;;;;;5044356;28;20025;-75
2022/01/16 01:31:32;;;;;;;42.47;17.15;;;;;;;;;;5037302;28;20040;-74
2022/01/16 01:33:58;;;;;;;36.15;17.40;;;;;;;;;;5035257;28;20029;-74
2022/01/16 01:36:24;;;;;;;43.13;17.05;;;;;;;;;;5045251;28;20468;-74
2022/01/16 01:38:50;;;;;;;43.70;18.67;;;;;;;;;;5045471;28;20028;-74
2022/01/16 01:41:19;;;;;;;40.67;20.10;;;;;;;;;;5037654;28;20037;-76
2022/01/16 01:51:59;;;;;;;39.42;17.52;;;;;;;;;;5038414;28;20063;-75
2022/01/16 01:54:26;;;;;;;43.90;19.88;;;;;;;;;;5052950;28;20025;-75
2022/01/16 01:56:52;;;;;;;38.25;19.02;;;;;;;;;;5041331;28;20132;-75
2022/01/16 01:59:19;;;;;;;48.80;18.85;;;;;;;;;;5030925;28;20116;-74
2022/01/16 02:01:45;;;;;;;39.45;18.95;;;;;;;;;;5018696;28;20028;-74
2022/01/16 02:04:11;;;;;;;38.28;19.33;;;;;;;;;;5046583;28;20029;-74
2022/01/16 02:06:36;;;;;;;37.70;17.88;;;;;;;;;;5042941;28;20028;-74
2022/01/16 02:09:06;;;;;;;39.47;18.20;;;;;;;;;;5039769;28;20029;-74
2022/01/16 02:11:33;;;;;;;35.60;18.25;;;;;;;;;;5049736;28;20051;-74
2022/01/16 02:14:11;;;;;;;42.60;18.38;;;;;;;;;;5037951;28;20467;-74
2022/01/16 02:35:26;;;;;;;32.97;14.32;;;;;;;;;;5052103;28;20533;-74
2022/01/16 02:37:52;;;;;;;32.20;15.50;;;;;;;;;;5036029;28;20079;-74
2022/01/16 02:40:23;;;;;;;38.95;14.93;;;;;;;;;;5045148;28;20056;-73
2022/01/16 02:42:51;;;;;;;29.15;15.80;;;;;;;;;;5043840;28;20021;-75
2022/01/16 02:45:28;;;;;;;36.15;14.68;;;;;;;;;;5018838;28;20573;-74
2022/01/16 02:47:55;;;;;;;32.90;13.75;;;;;;;;;;5036372;28;20425;-75
2022/01/16 02:50:21;;;;;;;43.92;16.10;;;;;;;;;;5034373;28;20051;-75
2022/01/16 02:52:48;;;;;;;33.95;14.00;;;;;;;;;;5039627;28;20022;-74
2022/01/16 02:55:15;;;;;;;29.80;13.30;;;;;;;;;;5047066;28;20430;-75
2022/01/16 02:57:41;;;;;;;26.05;13.52;;;;;;;;;;5035253;28;20422;-75
2022/01/16 03:00:08;;;;;;;24.00;12.95;;;;;;;;;;5046439;28;20104;-75
2022/01/16 03:02:34;;;;;;;34.88;13.35;;;;;;;;;;5023798;28;20075;-74
2022/01/16 03:05:00;;;;;;;37.83;15.80;;;;;;;;;;5038778;28;20026;-75
2022/01/16 03:07:27;;;;;;;26.27;12.80;;;;;;;;;;5048598;28;20383;-75
2022/01/16 03:12:50;;;;;;;38.83;14.27;;;;;;;;;;5040463;28;20068;-75
2022/01/16 03:15:16;;;;;;;35.83;14.43;;;;;;;;;;5047100;28;20021;-75
2022/01/16 03:21:53;;;;;;;33.78;14.25;;;;;;;;;;5035530;28;20037;-76
2022/01/16 03:23:23;;;;;;;39.10;14.73;;;;;;;;;;5048032;28;20051;-73
2022/01/16 03:25:50;;;;;;;29.17;14.13;;;;;;;;;;5035509;28;20082;-74
2022/01/16 03:28:16;;;;;;;41.25;15.23;;;;;;;;;;5027420;28;20495;-74
2022/01/16 03:30:43;;;;;;;33.67;13.90;;;;;;;;;;5038895;28;20368;-73
2022/01/16 03:33:09;;;;;;;37.30;15.25;;;;;;;;;;5047803;28;20086;-73
2022/01/16 03:35:35;;;;;;;38.70;14.43;;;;;;;;;;5033710;28;20087;-72
2022/01/16 03:38:01;;;;;;;36.92;14.93;;;;;;;;;;5037476;28;20029;-74
2022/01/16 03:40:27;;;;;;;35.67;14.45;;;;;;;;;;5043795;28;20021;-75
2022/01/16 03:42:58;;;;;;;46.85;16.60;;;;;;;;;;5026408;28;20062;-73
2022/01/16 03:45:24;;;;;;;39.35;14.52;;;;;;;;;;5035721;28;20025;-74
2022/01/16 03:47:50;;;;;;;34.65;15.25;;;;;;;;;;5051168;28;20541;-74
2022/01/16 03:50:16;;;;;;;38.33;16.05;;;;;;;;;;5044608;28;20070;-74
2022/01/16 03:52:42;;;;;;;43.28;17.80;;;;;;;;;;5042124;28;20116;-73
2022/01/16 03:55:08;;;;;;;43.67;16.52;;;;;;;;;;5037223;28;20037;-73
2022/01/16 03:57:36;;;;;;;33.63;15.70;;;;;;;;;;5047904;28;20040;-74
2022/01/16 04:00:02;;;;;;;47.95;17.95;;;;;;;;;;5036864;28;20058;-73
2022/01/16 04:02:28;;;;;;;51.15;20.27;;;;;;;;;;5044457;28;20041;-73
2022/01/16 04:04:54;;;;;;;44.97;16.60;;;;;;;;;;5047726;28;20017;-72
2022/01/16 04:07:26;;;;;;;48.97;17.50;;;;;;;;;;5023686;28;20029;-72
2022/01/16 04:09:52;;;;;;;46.95;17.75;;;;;;;;;;5042433;28;20089;-73
2022/01/16 04:12:22;;;;;;;57.70;20.05;;;;;;;;;;5038669;28;20053;-74
2022/01/16 04:17:18;;;;;;;45.08;16.30;;;;;;;;;;5050869;28;20029;-74
2022/01/16 04:19:44;;;;;;;39.60;16.15;;;;;;;;;;5039784;28;20047;-74
2022/01/16 04:22:10;;;;;;;40.15;16.40;;;;;;;;;;5049356;28;20030;-74
2022/01/16 04:24:36;;;;;;;39.47;17.00;;;;;;;;;;5045858;28;20021;-74
2022/01/16 04:27:03;;;;;;;41.13;16.92;;;;;;;;;;5043356;28;20047;-75
2022/01/16 04:29:29;;;;;;;34.55;15.88;;;;;;;;;;5053287;28;20029;-75
2022/01/16 04:31:55;;;;;;;41.72;16.20;;;;;;;;;;5039595;28;20108;-74
2022/01/16 04:34:21;;;;;;;39.88;15.55;;;;;;;;;;5037344;28;20036;-74
2022/01/16 04:36:47;;;;;;;32.60;15.32;;;;;;;;;;5043693;28;20029;-74
2022/01/16 04:39:17;;;;;;;56.30;19.73;;;;;;;;;;5050473;28;20080;-74
2022/01/16 04:44:27;;;;;;;41.80;17.95;;;;;;;;;;5046076;28;20159;-73
2022/01/16 04:46:54;;;;;;;36.38;16.05;;;;;;;;;;5047489;28;20358;-73
2022/01/16 04:49:20;;;;;;;39.28;15.30;;;;;;;;;;5021288;28;20128;-74
2022/01/16 04:51:46;;;;;;;36.63;17.17;;;;;;;;;;5033266;28;20029;-73
2022/01/16 04:54:12;;;;;;;38.35;19.33;;;;;;;;;;5041211;28;20036;-73
2022/01/16 04:56:38;;;;;;;34.38;17.80;;;;;;;;;;5044580;28;20025;-72
2022/01/16 04:59:04;;;;;;;38.83;15.95;;;;;;;;;;5032040;28;20032;-72
2022/01/16 05:01:30;;;;;;;32.97;16.10;;;;;;;;;;5022647;28;20025;-74
2022/01/16 05:03:56;;;;;;;36.42;16.63;;;;;;;;;;5053314;28;20021;-74
2022/01/16 05:06:22;;;;;;;39.00;15.95;;;;;;;;;;5044916;28;20467;-73
2022/01/16 05:08:48;;;;;;;33.05;14.85;;;;;;;;;;5043633;28;20076;-75
2022/01/16 05:11:18;;;;;;;30.67;14.23;;;;;;;;;;5049603;28;20308;-74
2022/01/16 05:18:55;;;;;;;38.42;17.48;;;;;;;;;;5046558;28;20044;-74
2022/01/16 05:21:21;;;;;;;29.02;13.00;;;;;;;;;;5038178;28;20025;-73
2022/01/16 05:23:47;;;;;;;41.30;14.73;;;;;;;;;;5031950;28;20498;-73
2022/01/16 05:26:25;;;;;;;33.45;15.32;;;;;;;;;;5040639;28;20032;-74
2022/01/16 05:28:51;;;;;;;32.67;14.85;;;;;;;;;;5026243;28;20438;-74
2022/01/16 05:31:17;;;;;;;34.05;15.95;;;;;;;;;;5038441;28;20030;-73
2022/01/16 05:36:19;;;;;;;37.47;16.00;;;;;;;;;;5051884;28;20464;-73
2022/01/16 05:38:45;;;;;;;38.05;15.88;;;;;;;;;;5042221;28;20108;-73
2022/01/16 05:41:11;;;;;;;33.53;15.93;;;;;;;;;;5030186;28;20053;-73
2022/01/16 05:43:37;;;;;;;31.02;15.30;;;;;;;;;;5018803;28;20032;-73
2022/01/16 05:46:03;;;;;;;35.83;16.65;;;;;;;;;;5030414;28;20028;-73
2022/01/16 05:48:29;;;;;;;34.35;16.85;;;;;;;;;;5041921;28;20059;-74
2022/01/16 05:50:55;;;;;;;44.80;17.27;;;;;;;;;;5023062;28;20029;-73
2022/01/16 05:53:21;;;;;;;44.05;17.23;;;;;;;;;;5049037;28;20025;-73
2022/01/16 05:55:47;;;;;;;43.60;19.15;;;;;;;;;;5036492;28;20032;-73
2022/01/16 05:58:15;;;;;;;53.03;23.48;;;;;;;;;;5046356;28;20033;-73
2022/01/16 06:00:41;;;;;;;49.80;22.85;;;;;;;;;;5043506;28;20029;-74
2022/01/16 06:03:09;;;;;;;63.70;25.40;;;;;;;;;;5020798;28;20113;-73
2022/01/16 06:05:35;;;;;;;68.90;27.02;;;;;;;;;;5049530;28;20021;-73
2022/01/16 06:08:08;;;;;;;51.33;21.25;;;;;;;;;;5038086;28;20036;-72
2022/01/16 06:10:33;;;;;;;54.88;21.67;;;;;;;;;;5043589;28;20052;-73
2022/01/16 06:13:00;;;;;;;43.47;18.45;;;;;;;;;;5045766;28;20033;-72
2022/01/16 06:15:26;;;;;;;41.42;16.63;;;;;;;;;;5036226;28;20029;-73
2022/01/16 06:17:52;;;;;;;40.65;17.67;;;;;;;;;;5048985;28;20375;-73
2022/01/16 06:20:18;;;;;;;35.78;17.17;;;;;;;;;;5040138;28;20025;-73
2022/01/16 06:22:45;;;;;;;45.00;17.83;;;;;;;;;;5041981;28;20033;-73
2022/01/16 06:25:11;;;;;;;44.13;18.98;;;;;;;;;;5047626;28;20024;-74
2022/01/16 06:27:37;;;;;;;45.70;18.67;;;;;;;;;;5036395;28;20025;-73
2022/01/16 06:30:05;;;;;;;41.13;20.17;;;;;;;;;;5031807;28;20029;-72
2022/01/16 06:32:31;;;;;;;46.60;19.48;;;;;;;;;;5042301;28;20036;-73
2022/01/16 06:34:57;;;;;;;41.00;17.33;;;;;;;;;;5052450;28;20418;-73
2022/01/16 06:37:22;;;;;;;40.08;16.25;;;;;;;;;;5036423;28;20094;-73
2022/01/16 06:39:48;;;;;;;38.20;17.48;;;;;;;;;;5049165;28;20017;-73
2022/01/16 06:42:14;;;;;;;36.42;15.18;;;;;;;;;;5039325;28;20029;-73
2022/01/16 06:44:40;;;;;;;37.70;15.73;;;;;;;;;;5041611;28;20033;-73
2022/01/16 06:47:06;;;;;;;34.03;15.48;;;;;;;;;;5046642;28;20029;-74
2022/01/16 06:49:32;;;;;;;30.05;15.27;;;;;;;;;;5035941;28;20037;-74
2022/01/16 06:51:58;;;;;;;34.08;14.80;;;;;;;;;;5047747;28;20033;-74
2022/01/16 06:54:24;;;;;;;42.28;16.45;;;;;;;;;;5040277;28;20036;-73
2022/01/16 06:56:50;;;;;;;37.15;15.55;;;;;;;;;;5040361;28;20080;-73
2022/01/16 06:59:16;;;;;;;30.13;14.05;;;;;;;;;;5047446;28;20033;-73
2022/01/16 07:01:42;;;;;;;35.88;15.43;;;;;;;;;;5035320;28;20021;-73
2022/01/16 07:04:08;;;;;;;34.13;14.13;;;;;;;;;;5045759;28;20036;-73
2022/01/16 07:06:34;;;;;;;36.72;17.45;;;;;;;;;;5041522;28;20054;-73
2022/01/16 07:09:00;;;;;;;34.97;16.42;;;;;;;;;;5021161;28;20510;-74
2022/01/16 07:11:26;;;;;;;31.75;16.40;;;;;;;;;;5048902;28;20369;-74
2022/01/16 07:13:52;;;;;;;36.75;17.92;;;;;;;;;;5017487;28;20509;-74
2022/01/16 07:16:18;;;;;;;31.70;16.00;;;;;;;;;;5044495;28;20498;-73
2022/01/16 07:18:44;;;;;;;34.40;16.38;;;;;;;;;;5042611;28;20059;-74
2022/01/16 07:21:13;;;;;;;31.08;15.40;;;;;;;;;;5038656;28;20033;-75
2022/01/16 07:23:46;;;;;;;41.92;17.83;;;;;;;;;;5048021;28;20028;-73
2022/01/16 07:26:12;;;;;;;29.92;15.18;;;;;;;;;;5038299;28;20024;-72
2022/01/16 07:28:38;;;;;;;29.02;15.63;;;;;;;;;;5041721;28;20116;-72
2022/01/16 07:31:04;;;;;;;27.73;15.68;;;;;;;;;;5037820;28;20100;-72
2022/01/16 07:33:30;;;;;;;28.83;14.52;;;;;;;;;;5033293;28;20033;-72
2022/01/16 07:35:56;;;;;;;29.48;14.95;;;;;;;;;;5047014;28;20091;-70
2022/01/16 07:38:22;;;;;;;32.78;15.27;;;;;;;;;;5021447;28;20040;-70
2022/01/16 07:40:48;;;;;;;31.25;16.55;;;;;;;;;;5039769;28;20463;-71
2022/01/16 07:43:14;;;;;;;32.28;15.55;;;;;;;;;;5046323;28;20471;-70
2022/01/16 07:45:40;;;;;;;30.85;15.23;;;;;;;;;;5017711;28;20021;-70
2022/01/16 07:48:09;;;;;;;31.85;15.15;;;;;;;;;;5046121;28;20048;-70
2022/01/16 07:50:36;;;;;;;36.90;17.40;;;;;;;;;;5041439;28;20029;-70
2022/01/16 07:53:02;;;;;;;31.05;14.48;;;;;;;;;;5037861;28;20079;-70
2022/01/16 07:55:28;;;;;;;34.72;15.63;;;;;;;;;;5047870;28;20112;-71
2022/01/16 07:57:55;;;;;;;31.08;16.10;;;;;;;;;;5035236;28;20036;-70
2022/01/16 08:00:21;;;;;;;33.03;17.75;;;;;;;;;;5025830;28;20033;-72
2022/01/16 08:02:48;;;;;;;40.60;20.00;;;;;;;;;;5043166;28;20032;-74
2022/01/16 08:05:15;;;;;;;36.13;18.92;;;;;;;;;;5036404;28;20029;-72
2022/01/16 08:07:42;;;;;;;40.03;17.67;;;;;;;;;;5047957;28;20044;-76
2022/01/16 08:10:08;;;;;;;33.65;16.65;;;;;;;;;;5037277;28;20390;-72
2022/01/16 08:12:34;;;;;;;36.25;17.98;;;;;;;;;;5042239;28;20034;-72
2022/01/16 08:15:00;;;;;;;31.63;16.67;;;;;;;;;;5037796;28;20021;-72
2022/01/16 08:17:26;;;;;;;32.38;17.73;;;;;;;;;;5047434;28;20109;-71
2022/01/16 08:19:52;;;;;;;35.13;17.67;;;;;;;;;;5046628;28;20498;-71
2022/01/16 08:22:18;;;;;;;33.45;16.55;;;;;;;;;;5019017;28;20021;-72
2022/01/16 08:24:44;;;;;;;33.97;16.55;;;;;;;;;;5038764;28;20673;-73
2022/01/16 08:27:10;;;;;;;38.25;17.30;;;;;;;;;;5045060;28;20078;-74
2022/01/16 08:29:36;;;;;;;35.67;18.83;;;;;;;;;;5038387;28;20602;-72
2022/01/16 08:32:02;;;;;;;42.20;19.35;;;;;;;;;;5035555;28;20148;-71
2022/01/16 08:34:28;;;;;;;43.97;21.20;;;;;;;;;;5050660;28;20091;-73
2022/01/16 08:36:54;;;;;;;43.35;20.73;;;;;;;;;;5051715;28;20220;-73
2022/01/16 08:39:20;;;;;;;42.80;19.58;;;;;;;;;;5035113;28;20109;-72
2022/01/16 08:41:46;;;;;;;36.17;19.02;;;;;;;;;;5032550;28;20025;-72
2022/01/16 08:44:12;;;;;;;43.42;19.45;;;;;;;;;;5044323;28;20057;-72
2022/01/16 08:46:38;;;;;;;37.78;17.88;;;;;;;;;;5041608;28;20025;-73
2022/01/16 08:49:04;;;;;;;34.65;18.73;;;;;;;;;;5019818;28;20029;-72
2022/01/16 08:51:30;;;;;;;40.50;19.83;;;;;;;;;;5050866;28;20029;-73
2022/01/16 08:53:56;;;;;;;44.05;19.38;;;;;;;;;;5020694;28;20156;-73
2022/01/16 08:56:22;;;;;;;40.35;19.52;;;;;;;;;;5046830;28;20029;-73
2022/01/16 08:58:48;;;;;;;36.65;19.50;;;;;;;;;;5024244;28;20033;-73
2022/01/16 09:01:14;;;;;;;41.20;19.13;;;;;;;;;;5049972;28;20398;-72
2022/01/16 09:03:40;;;;;;;33.95;18.40;;;;;;;;;;5052035;28;20067;-73
2022/01/16 09:06:06;;;;;;;36.47;18.77;;;;;;;;;;5040084;28;20114;-73
2022/01/16 09:08:32;;;;;;;39.60;19.40;;;;;;;;;;5045002;28;20100;-73
2022/01/16 09:10:58;;;;;;;35.35;19.42;;;;;;;;;;5047505;28;20487;-73
2022/01/16 09:13:24;;;;;;;34.17;16.88;;;;;;;;;;5038025;28;20448;-73
2022/01/16 09:15:51;;;;;;;36.90;18.58;;;;;;;;;;5054418;28;20096;-74
2022/01/16 09:18:18;;;;;;;33.97;18.45;;;;;;;;;;5028990;28;20036;-73
2022/01/16 09:20:44;;;;;;;37.83;18.30;;;;;;;;;;5045240;28;20055;-73
2022/01/16 09:23:11;;;;;;;38.90;19.67;;;;;;;;;;5039701;28;20064;-72
2022/01/16 09:25:37;;;;;;;32.22;17.27;;;;;;;;;;5050877;28;20430;-74
2022/01/16 09:28:03;;;;;;;37.45;17.88;;;;;;;;;;5040127;28;20078;-75
2022/01/16 09:30:30;;;;;;;34.78;17.55;;;;;;;;;;5045670;28;20030;-73
2022/01/16 09:32:56;;;;;;;31.85;15.73;;;;;;;;;;5045680;28;20028;-72
2022/01/16 09:35:22;;;;;;;36.05;15.90;;;;;;;;;;5034040;28;20036;-74
2022/01/16 09:37:49;;;;;;;25.48;13.80;;;;;;;;;;5018572;28;20036;-73
2022/01/16 09:40:16;;;;;;;27.88;14.98;;;;;;;;;;5045774;28;20063;-73
2022/01/16 09:42:42;;;;;;;23.95;13.45;;;;;;;;;;5042082;28;20380;-74
2022/01/16 09:45:09;;;;;;;29.52;14.07;;;;;;;;;;5048462;28;20017;-73
2022/01/16 09:47:36;;;;;;;26.05;14.10;;;;;;;;;;5052413;28;20025;-74
2022/01/16 09:50:04;;;;;;;29.02;14.65;;;;;;;;;;5038669;28;20498;-73
2022/01/16 09:52:30;;;;;;;30.48;15.55;;;;;;;;;;5053798;28;20500;-73
2022/01/16 09:54:56;;;;;;;30.17;14.27;;;;;;;;;;5041604;28;20033;-73
2022/01/16 09:57:22;;;;;;;27.00;15.38;;;;;;;;;;5049628;28;20049;-74
2022/01/16 09:59:49;;;;;;;26.13;15.48;;;;;;;;;;5019767;28;20110;-74
2022/01/16 10:02:15;;;;;;;27.75;14.45;;;;;;;;;;5046696;28;20550;-74
2022/01/16 10:04:42;;;;;;;24.73;14.05;;;;;;;;;;5043673;28;20064;-73
2022/01/16 10:07:10;;;;;;;27.13;13.98;;;;;;;;;;5039750;28;20607;-73
2022/01/16 10:09:36;;;;;;;26.30;15.25;;;;;;;;;;5050401;28;20021;-72
2022/01/16 10:12:04;;;;;;;27.60;13.95;;;;;;;;;;5039215;28;20085;-74
2022/01/16 10:14:33;;;;;;;25.67;14.27;;;;;;;;;;5026602;28;20030;-75
2022/01/16 10:16:59;;;;;;;29.90;14.25;;;;;;;;;;5046445;28;20394;-74
2022/01/16 10:19:25;;;;;;;22.30;13.48;;;;;;;;;;5036569;28;20029;-75
2022/01/16 10:21:52;;;;;;;27.88;14.70;;;;;;;;;;5031971;28;20022;-74
2022/01/16 10:24:28;;;;;;;25.48;14.60;;;;;;;;;;5040643;28;20024;-73
2022/01/16 10:27:10;;;;;;;29.58;13.75;;;;;;;;;;5023212;28;20491;-72
2022/01/16 10:29:43;;;;;;;31.98;14.55;;;;;;;;;;5031835;28;20040;-72
2022/01/16 10:32:15;;;;;;;27.67;14.82;;;;;;;;;;5035695;28;20058;-73
2022/01/16 10:34:41;;;;;;;24.77;14.18;;;;;;;;;;5051334;28;20033;-73
2022/01/16 10:37:20;;;;;;;28.02;15.40;;;;;;;;;;5052478;28;20490;-73
2022/01/16 10:39:52;;;;;;;26.80;14.98;;;;;;;;;;5029849;28;20021;-75
2022/01/16 10:42:18;;;;;;;25.88;14.20;;;;;;;;;;5037885;28;20029;-75
2022/01/16 10:44:45;;;;;;;31.88;16.80;;;;;;;;;;5050300;28;20119;-74
2022/01/16 10:47:24;;;;;;;28.85;16.35;;;;;;;;;;5036926;28;20353;-74
2022/01/16 10:50:00;;;;;;;27.10;14.45;;;;;;;;;;5053133;28;20024;-73
2022/01/16 10:52:26;;;;;;;21.02;12.18;;;;;;;;;;5048120;28;20414;-74
2022/01/16 10:54:52;;;;;;;20.10;10.40;;;;;;;;;;5047235;28;20093;-75
2022/01/16 10:57:26;;;;;;;19.48;10.20;;;;;;;;;;5021682;28;20029;-75
2022/01/16 11:00:24;;;;;;;13.75;8.07;;;;;;;;;;5038331;28;20095;-73
2022/01/16 11:02:51;;;;;;;10.88;6.75;;;;;;;;;;5008459;28;20044;-74
2022/01/16 11:05:21;;;;;;;11.93;6.63;;;;;;;;;;5036865;28;20439;-75
2022/01/16 11:07:54;;;;;;;12.02;6.57;;;;;;;;;;5048911;28;20070;-75
2022/01/16 11:10:21;;;;;;;15.00;6.85;;;;;;;;;;5040006;28;20104;-71
2022/01/16 11:12:47;;;;;;;11.60;7.03;;;;;;;;;;5040818;28;20490;-74
2022/01/16 11:15:13;;;;;;;10.68;6.60;;;;;;;;;;5046676;28;20168;-73
2022/01/16 11:17:39;;;;;;;13.18;7.13;;;;;;;;;;5035886;28;20084;-74
2022/01/16 11:20:07;;;;;;;11.73;6.68;;;;;;;;;;5046621;28;20096;-74
2022/01/16 11:22:57;;;;;;;11.02;6.22;;;;;;;;;;5041401;28;20021;-73
2022/01/16 11:25:31;;;;;;;10.15;6.10;;;;;;;;;;5035797;28;20021;-73
2022/01/16 11:27:57;;;;;;;14.15;7.25;;;;;;;;;;5033210;28;20029;-73
2022/01/16 11:30:23;;;;;;;12.18;7.82;;;;;;;;;;5039430;28;20026;-74
2022/01/16 11:32:49;;;;;;;14.02;7.90;;;;;;;;;;5042636;28;20031;-76
2022/01/16 11:35:16;;;;;;;14.02;7.22;;;;;;;;;;5051491;22;20425;-76
2022/01/16 11:37:42;;;;;;;14.25;7.70;;;;;;;;;;5051441;28;20024;-76
2022/01/16 11:40:19;;;;;;;13.25;7.30;;;;;;;;;;5057353;28;20048;-76
2022/01/16 11:42:45;;;;;;;11.85;7.30;;;;;;;;;;5061617;28;20021;-75
2022/01/16 11:45:11;;;;;;;13.48;8.00;;;;;;;;;;5065641;28;20050;-75
2022/01/16 11:47:56;;;;;;;12.15;7.40;;;;;;;;;;5054639;28;20037;-74
2022/01/16 11:50:33;;;;;;;15.02;7.45;;;;;;;;;;5063596;28;20094;-74
2022/01/16 11:52:59;;;;;;;16.00;8.23;;;;;;;;;;5063922;28;20024;-73
2022/01/16 11:55:32;;;;;;;14.18;8.73;;;;;;;;;;5054311;28;20028;-72
2022/01/16 11:57:58;;;;;;;14.30;7.88;;;;;;;;;;5055948;28;20062;-72
2022/01/16 12:00:24;;;;;;;12.98;7.25;;;;;;;;;;5061765;28;20100;-73
2022/01/16 12:02:52;;;;;;;11.38;6.90;;;;;;;;;;5060862;28;20029;-71
2022/01/16 12:05:26;;;;;;;14.27;7.63;;;;;;;;;;5054429;28;20090;-72
2022/01/16 12:07:53;;;;;;;11.73;6.55;;;;;;;;;;5038013;28;20090;-73
2022/01/16 12:10:36;;;;;;;12.07;6.75;;;;;;;;;;5045059;28;20067;-73
2022/01/16 12:13:03;;;;;;;12.45;6.10;;;;;;;;;;5064471;28;20048;-73
2022/01/16 12:15:29;;;;;;;16.17;7.35;;;;;;;;;;5054459;28;20025;-71
2022/01/16 12:17:55;;;;;;;11.60;6.88;;;;;;;;;;5048815;28;20264;-73
2022/01/16 12:20:26;;;;;;;14.88;6.90;;;;;;;;;;5058710;28;20033;-73
2022/01/16 12:22:56;;;;;;;13.23;7.20;;;;;;;;;;5040610;28;20024;-73
2022/01/16 12:25:43;;;;;;;12.95;6.88;;;;;;;;;;5050328;28;20078;-73
2022/01/16 12:28:08;;;;;;;11.95;6.65;;;;;;;;;;5046543;28;20551;-73
2022/01/16 12:30:38;;;;;;;11.13;7.10;;;;;;;;;;5068237;28;20032;-73
2022/01/16 12:33:08;;;;;;;18.98;8.30;;;;;;;;;;5042990;28;20021;-74
2022/01/16 12:35:50;;;;;;;10.77;6.63;;;;;;;;;;5071523;28;20040;-74
2022/01/16 12:38:22;;;;;;;11.52;6.55;;;;;;;;;;5061617;28;20095;-74
2022/01/16 12:41:00;;;;;;;12.20;7.03;;;;;;;;;;5063278;28;20486;-73
2022/01/16 12:45:52;;;;;;;12.98;6.75;;;;;;;;;;5058289;28;20465;-74
2022/01/16 12:48:18;;;;;;;13.05;7.43;;;;;;;;;;5067085;28;20021;-74
2022/01/16 12:50:44;;;;;;;15.02;7.75;;;;;;;;;;5065305;28;20474;-73
2022/01/16 12:53:11;;;;;;;13.00;7.30;;;;;;;;;;5059607;28;20108;-73
2022/01/16 12:55:37;;;;;;;13.93;7.43;;;;;;;;;;5071109;28;20116;-75
2022/01/16 12:58:18;;;;;;;17.48;8.25;;;;;;;;;;5059481;28;20509;-74
2022/01/16 13:00:59;;;;;;;15.98;7.95;;;;;;;;;;5045379;28;20079;-74
2022/01/16 13:03:29;;;;;;;14.90;8.73;;;;;;;;;;5070587;28;20085;-74
2022/01/16 13:06:13;;;;;;;15.50;8.38;;;;;;;;;;5058273;28;20432;-73
2022/01/16 13:08:54;;;;;;;15.40;8.70;;;;;;;;;;5063874;28;20025;-73
2022/01/16 13:11:21;;;;;;;19.23;9.10;;;;;;;;;;5070124;28;20106;-72
2022/01/16 13:13:48;;;;;;;17.00;9.35;;;;;;;;;;5057403;28;20020;-72
2022/01/16 13:16:25;;;;;;;18.63;10.65;;;;;;;;;;5067502;28;20029;-76
2022/01/16 13:19:08;;;;;;;16.48;9.88;;;;;;;;;;5047676;28;20056;-73
2022/01/16 13:21:48;;;;;;;16.60;8.75;;;;;;;;;;5057324;28;20028;-74
2022/01/16 13:24:27;;;;;;;16.13;9.48;;;;;;;;;;5049036;28;20067;-74
2022/01/16 13:26:53;;;;;;;16.83;9.10;;;;;;;;;;5065892;28;20029;-72
2022/01/16 13:29:21;;;;;;;19.38;10.38;;;;;;;;;;5058397;28;20474;-74
2022/01/16 13:31:47;;;;;;;19.92;9.98;;;;;;;;;;5071135;28;20067;-73
2022/01/16 13:34:14;;;;;;;18.75;9.70;;;;;;;;;;5060824;28;20043;-72
2022/01/16 13:36:50;;;;;;;15.95;9.23;;;;;;;;;;5062799;28;20474;-72
2022/01/16 13:39:16;;;;;;;18.08;9.27;;;;;;;;;;5070735;28;20031;-72
2022/01/16 13:41:44;;;;;;;19.17;10.82;;;;;;;;;;5060178;28;20433;-74
2022/01/16 13:44:28;;;;;;;21.40;11.45;;;;;;;;;;5069824;28;20017;-74
2022/01/16 13:46:58;;;;;;;16.00;9.68;;;;;;;;;;5066845;28;20025;-72
2022/01/16 13:49:24;;;;;;;21.35;10.88;;;;;;;;;;5039438;28;20032;-74
2022/01/16 13:51:57;;;;;;;18.67;10.32;;;;;;;;;;5052683;28;20024;-74
2022/01/16 13:54:28;;;;;;;23.63;12.15;;;;;;;;;;5062786;28;20052;-74
2022/01/16 13:56:56;;;;;;;15.48;9.13;;;;;;;;;;5063711;28;20029;-73
2022/01/16 13:59:22;;;;;;;20.27;10.77;;;;;;;;;;5072321;28;20389;-74
2022/01/16 14:01:52;;;;;;;19.73;9.77;;;;;;;;;;5058689;28;20024;-73
2022/01/16 14:04:18;;;;;;;18.27;10.13;;;;;;;;;;5066803;28;20028;-74
2022/01/16 14:06:49;;;;;;;20.55;10.23;;;;;;;;;;5046765;28;20021;-73
2022/01/16 14:09:15;;;;;;;17.95;10.07;;;;;;;;;;5058636;28;20021;-74
2022/01/16 14:11:43;;;;;;;17.10;9.55;;;;;;;;;;5069705;28;20029;-73
2022/01/16 14:14:09;;;;;;;15.75;9.57;;;;;;;;;;5058864;28;20024;-74
2022/01/16 14:16:38;;;;;;;17.08;9.50;;;;;;;;;;5062916;28;20040;-73
2022/01/16 14:19:08;;;;;;;16.77;9.95;;;;;;;;;;5066556;28;20025;-74
2022/01/16 14:24:36;;;;;;;14.90;9.23;;;;;;;;;;5063930;28;20044;-74
2022/01/16 14:27:02;;;;;;;17.40;9.55;;;;;;;;;;5066065;28;20386;-72
2022/01/16 14:29:28;;;;;;;17.65;10.50;;;;;;;;;;5055701;28;20021;-73
2022/01/16 14:31:56;;;;;;;15.13;9.35;;;;;;;;;;5068142;28;20483;-74
2022/01/16 14:34:24;;;;;;;15.45;9.63;;;;;;;;;;5059834;28;20393;-73
2022/01/16 14:36:50;;;;;;;17.65;10.43;;;;;;;;;;5060596;28;20043;-72
2022/01/16 14:39:16;;;;;;;16.45;9.50;;;;;;;;;;5067418;28;20028;-72
2022/01/16 14:41:47;;;;;;;17.58;9.80;;;;;;;;;;5055480;28;20087;-74
2022/01/16 14:44:14;;;;;;;19.63;9.65;;;;;;;;;;5065352;28;20021;-72
2022/01/16 14:46:40;;;;;;;18.10;9.85;;;;;;;;;;5062450;28;20071;-73
2022/01/16 14:49:06;;;;;;;17.50;9.73;;;;;;;;;;5057884;28;20079;-74
2022/01/16 14:51:33;;;;;;;14.23;8.95;;;;;;;;;;5068640;28;20052;-73
2022/01/16 14:53:59;;;;;;;15.73;9.50;;;;;;;;;;5056943;28;20025;-73
2022/01/16 14:56:25;;;;;;;16.25;10.13;;;;;;;;;;5063546;28;20037;-73
2022/01/16 14:58:51;;;;;;;15.85;8.95;;;;;;;;;;5063942;28;20024;-73
2022/01/16 15:01:17;;;;;;;15.75;9.15;;;;;;;;;;5056298;28;20016;-70
2022/01/16 15:03:43;;;;;;;19.13;10.88;;;;;;;;;;5050064;28;20108;-74
2022/01/16 15:06:10;;;;;;;20.10;9.90;;;;;;;;;;5058015;28;20016;-73
2022/01/16 15:08:40;;;;;;;16.15;8.43;;;;;;;;;;5062221;28;20037;-74
2022/01/16 15:11:07;;;;;;;17.73;9.98;;;;;;;;;;5065760;28;20385;-73
2022/01/16 15:13:33;;;;;;;18.80;9.90;;;;;;;;;;5037032;28;20398;-73
2022/01/16 15:15:59;;;;;;;16.92;9.45;;;;;;;;;;5066824;28;20029;-73
2022/01/16 15:18:25;;;;;;;16.75;9.30;;;;;;;;;;5059841;28;20119;-73
2022/01/16 15:20:54;;;;;;;19.40;10.07;;;;;;;;;;5060143;28;20479;-72